createdAt,value
2023-03-18T00:01:31.337Z,100850.59
2023-03-18T00:04:00.050Z,100851.05
2023-03-18T00:06:28.100Z,100850.28
2023-03-18T00:08:55.521Z,100850.77
2023-03-18T00:11:22.495Z,100849.36
2023-03-18T00:13:49.823Z,100847.26
2023-03-18T00:16:17.719Z,100847.09
2023-03-18T00:18:44.804Z,100850.71
2023-03-18T00:21:12.408Z,100851.38
2023-03-18T00:23:40.194Z,100849.04
2023-03-18T00:26:09.179Z,100847.27
2023-03-18T00:28:38.279Z,100845.19
2023-03-18T00:31:09.264Z,100847.15
2023-03-18T00:33:38.215Z,100846.55
2023-03-18T00:36:06.932Z,100843.52
2023-03-18T00:38:35.823Z,100839.14
2023-03-18T00:41:11.820Z,100835.09
2023-03-18T00:43:52.882Z,100831.84
2023-03-18T00:46:27.655Z,100830.48
2023-03-18T00:48:57.641Z,100828.33
2023-03-18T00:51:26.826Z,100824.23
2023-03-18T00:53:56.321Z,100826.06
2023-03-18T00:56:26.531Z,100826.17
2023-03-18T00:58:54.169Z,100820.98
2023-03-18T01:01:22.637Z,100818.65
2023-03-18T01:03:50.578Z,100815.95
2023-03-18T01:06:22.801Z,100811.62
2023-03-18T01:08:51.797Z,100813.19
2023-03-18T01:11:19.148Z,100811.90
2023-03-18T01:13:48.353Z,100816.55
2023-03-18T01:16:16.702Z,100815.26
2023-03-18T01:18:43.832Z,100808.17
2023-03-18T01:21:12.284Z,100806.05
2023-03-18T01:23:44.468Z,100804.44
2023-03-18T01:26:11.517Z,100805.02
2023-03-18T01:28:42.521Z,100802.77
2023-03-18T01:31:09.895Z,100805.20
2023-03-18T01:33:37.111Z,100805.35
2023-03-18T01:36:05.189Z,100802.71
2023-03-18T01:38:32.810Z,100798.06
2023-03-18T01:41:07.516Z,100797.51
2023-03-18T01:43:39.016Z,100789.63
2023-03-18T01:47:03.068Z,100792.00
2023-03-18T01:49:43.218Z,100783.40
2023-03-18T01:52:24.336Z,100780.98
2023-03-18T01:55:06.298Z,100781.46
2023-03-18T01:57:35.248Z,100782.16
2023-03-18T02:00:04.776Z,100783.25
2023-03-18T02:02:42.661Z,100782.81
2023-03-18T02:05:13.221Z,100786.20
2023-03-18T02:07:44.443Z,100784.98
2023-03-18T02:10:32.545Z,100781.89
2023-03-18T02:13:05.110Z,100777.90
2023-03-18T02:16:49.756Z,100782.98
2023-03-18T02:19:31.409Z,100781.67
2023-03-18T02:22:39.803Z,100781.20
2023-03-18T02:25:13.050Z,100782.59
2023-03-18T02:27:45.331Z,100784.05
2023-03-18T02:30:23.873Z,100781.46
2023-03-18T02:32:53.051Z,100781.19
2023-03-18T02:35:20.850Z,100779.02
2023-03-18T02:37:48.367Z,100784.24
2023-03-18T02:40:31.181Z,100780.90
2023-03-18T02:43:18.578Z,100780.41
2023-03-18T02:46:13.884Z,100776.89
2023-03-18T02:48:44.698Z,100775.27
2023-03-18T02:51:13.397Z,100775.42
2023-03-18T02:53:41.935Z,100772.61
2023-03-18T02:56:10.052Z,100767.38
2023-03-18T02:58:38.347Z,100765.63
2023-03-18T03:01:06.698Z,100768.38
2023-03-18T03:03:35.411Z,100764.10
2023-03-18T03:06:03.568Z,100759.94
2023-03-18T03:08:31.439Z,100759.77
2023-03-18T03:10:58.333Z,100758.27
2023-03-18T03:13:26.765Z,100756.90
2023-03-18T03:15:54.479Z,100755.59
2023-03-18T03:18:22.751Z,100753.17
2023-03-18T03:20:53.618Z,100747.77
2023-03-18T03:23:21.361Z,100744.09
2023-03-18T03:25:49.593Z,100742.20
2023-03-18T03:28:17.239Z,100742.04
2023-03-18T03:30:45.569Z,100741.22
2023-03-18T03:33:13.200Z,100739.15
2023-03-18T03:35:40.589Z,100742.96
2023-03-18T03:38:08.228Z,100742.25
2023-03-18T03:40:35.692Z,100737.89
2023-03-18T03:43:02.852Z,100737.40
2023-03-18T03:45:31.056Z,100743.17
2023-03-18T03:47:58.050Z,100740.58
2023-03-18T03:50:24.994Z,100741.54
2023-03-18T03:52:53.214Z,100736.79
2023-03-18T03:55:21.449Z,100735.65
2023-03-18T03:57:49.045Z,100741.36
2023-03-18T04:00:20.863Z,100744.26
2023-03-18T04:02:50.106Z,100746.48
2023-03-18T04:05:18.832Z,100745.60
2023-03-18T04:07:47.795Z,100745.49
2023-03-18T04:10:18.674Z,100743.80
2023-03-18T04:12:46.458Z,100744.38
2023-03-18T04:15:15.567Z,100739.24
2023-03-18T04:17:43.103Z,100735.61
2023-03-18T04:20:11.679Z,100734.77
2023-03-18T04:22:45.612Z,100735.63
2023-03-18T04:25:14.945Z,100736.48
2023-03-18T04:27:42.514Z,100742.70
2023-03-18T04:30:12.857Z,100739.12
2023-03-18T04:32:53.294Z,100739.98
2023-03-18T04:35:21.319Z,100749.63
2023-03-18T04:37:50.007Z,100747.92
2023-03-18T04:40:18.505Z,100744.52
2023-03-18T04:42:47.905Z,100747.30
2023-03-18T04:45:16.380Z,100749.46
2023-03-18T04:47:44.528Z,100751.73
2023-03-18T04:50:13.783Z,100753.13
2023-03-18T04:52:42.111Z,100750.77
